Time;durP1;ratioP1;P1;durP2;ratioP2;P2;SDS_P1;SDS_P2;PMS_P1;PMS_P2;Temp;Humidity;BMP_temperature;BMP_pressure;BME280_temperature;BME280_humidity;BME280_pressure;Samples;Min_cycle;Max_cycle;Signal;HPM_P1;HPM_P2
2022/07/12 00:00:34;;;;;;;2.20;1.30;;;17.70;99.90;;;;;;4973688;28;20037;-57
2022/07/12 00:03:00;;;;;;;3.55;1.23;;;17.60;99.90;;;;;;4975523;28;20019;-58
2022/07/12 00:05:25;;;;;;;2.30;1.15;;;17.60;99.90;;;;;;4974603;28;20026;-53
2022/07/12 00:07:51;;;;;;;1.55;1.08;;;17.60;99.90;;;;;;4973860;28;20058;-56
2022/07/12 00:10:17;;;;;;;1.23;1.13;;;17.50;99.90;;;;;;4975137;28;20033;-52
2022/07/12 00:12:42;;;;;;;2.10;1.13;;;17.50;99.90;;;;;;4975416;28;20022;-53
2022/07/12 00:15:09;;;;;;;2.15;1.30;;;17.50;99.90;;;;;;4975175;28;20034;-51
2022/07/12 00:17:35;;;;;;;1.02;0.93;;;17.40;99.90;;;;;;4974974;28;20015;-56
2022/07/12 00:20:01;;;;;;;1.88;1.33;;;17.40;99.90;;;;;;4974887;28;20022;-51
2022/07/12 00:22:28;;;;;;;1.58;1.20;;;17.30;99.90;;;;;;4973714;28;20054;-54
2022/07/12 00:24:54;;;;;;;1.73;1.13;;;17.30;99.90;;;;;;4975146;28;20034;-52
2022/07/12 00:27:20;;;;;;;1.92;1.20;;;17.30;99.90;;;;;;4973646;28;20027;-53
2022/07/12 00:29:46;;;;;;;2.78;1.35;;;17.30;99.90;;;;;;4973800;28;20465;-54
2022/07/12 00:32:11;;;;;;;2.28;1.00;;;17.20;99.90;;;;;;4974384;28;20023;-57
2022/07/12 00:34:37;;;;;;;1.25;1.00;;;17.30;99.90;;;;;;4974331;28;20031;-58
2022/07/12 00:37:03;;;;;;;1.75;1.38;;;17.40;99.90;;;;;;4974676;28;20025;-55
2022/07/12 00:39:28;;;;;;;1.65;1.20;;;17.40;99.90;;;;;;4974767;28;20034;-57
2022/07/12 00:41:54;;;;;;;2.10;1.40;;;17.20;99.90;;;;;;4974662;28;20052;-56
2022/07/12 00:44:19;;;;;;;1.40;1.20;;;17.10;99.90;;;;;;4974364;28;20033;-54
2022/07/12 00:46:45;;;;;;;2.20;1.40;;;17.00;99.90;;;;;;4973558;28;20031;-51
2022/07/12 00:49:15;;;;;;;1.77;1.30;;;17.00;99.90;;;;;;4973311;28;20085;-50
2022/07/12 00:51:43;;;;;;;1.30;1.20;;;16.90;99.90;;;;;;4974608;28;20019;-49
2022/07/12 00:54:09;;;;;;;5.97;1.55;;;16.80;99.90;;;;;;4973216;28;20027;-50
2022/07/12 00:56:35;;;;;;;3.50;1.35;;;16.80;99.90;;;;;;4974448;28;20034;-50
2022/07/12 00:59:00;;;;;;;1.42;1.30;;;16.60;99.90;;;;;;4975021;28;20023;-51
2022/07/12 01:01:26;;;;;;;1.75;1.30;;;16.50;99.90;;;;;;4975097;28;20429;-50
2022/07/12 01:03:52;;;;;;;2.25;1.30;;;16.50;99.90;;;;;;4974408;28;20106;-54
2022/07/12 01:06:20;;;;;;;2.53;1.55;;;16.40;99.90;;;;;;4973168;28;20102;-54
2022/07/12 01:08:46;;;;;;;1.63;1.17;;;16.40;99.90;;;;;;4974609;28;20519;-49
2022/07/12 01:11:12;;;;;;;2.83;1.45;;;16.30;99.90;;;;;;4973949;28;20058;-49
2022/07/12 01:13:39;;;;;;;3.25;2.10;;;16.30;99.90;;;;;;4977119;28;20051;-51
2022/07/12 01:16:07;;;;;;;4.90;1.65;;;16.20;99.90;;;;;;4977258;28;20023;-50
2022/07/12 01:18:33;;;;;;;5.60;1.27;;;16.10;99.90;;;;;;4977003;28;20027;-53
2022/07/12 01:21:05;;;;;;;5.13;1.40;;;16.10;99.90;;;;;;4976937;28;20046;-50
2022/07/12 01:23:31;;;;;;;;;;;16.10;99.90;;;;;;4978210;28;20134;-52
2022/07/12 01:25:56;;;;;;;2.05;1.50;;;16.10;99.90;;;;;;4978168;28;19931;-55
2022/07/12 01:28:22;;;;;;;3.05;1.35;;;16.10;99.90;;;;;;4977933;28;20026;-51
2022/07/12 01:30:48;;;;;;;4.93;1.40;;;16.00;99.90;;;;;;4978018;28;20027;-54
2022/07/12 01:33:15;;;;;;;1.85;1.40;;;16.00;99.90;;;;;;4977900;28;20413;-53
2022/07/12 01:36:30;;;;;;;1.70;1.50;;;15.90;99.90;;;;;;4977941;28;20102;-51
2022/07/12 01:38:55;;;;;;;4.03;1.98;;;15.70;99.90;;;;;;4976652;28;20027;-51
2022/07/12 01:41:23;;;;;;;3.63;1.55;;;15.70;99.90;;;;;;4978186;28;20034;-54
2022/07/12 01:43:52;;;;;;;1.98;1.50;;;15.70;99.90;;;;;;4977812;28;20386;-50
2022/07/12 01:46:18;;;;;;;2.00;1.48;;;15.70;99.90;;;;;;4976801;28;20019;-50
2022/07/12 01:48:44;;;;;;;2.55;1.52;;;15.50;99.90;;;;;;4976488;28;20030;-51
2022/07/12 01:51:10;;;;;;;1.70;1.60;;;15.40;99.90;;;;;;4977643;28;20538;-54
2022/07/12 01:53:36;;;;;;;3.10;1.60;;;15.40;99.90;;;;;;4976408;28;20133;-55
2022/07/12 01:56:05;;;;;;;4.80;1.50;;;15.30;99.90;;;;;;4977122;28;20027;-54
2022/07/12 01:58:32;;;;;;;5.28;1.55;;;15.20;99.90;;;;;;4977467;28;20117;-53
2022/07/12 02:00:58;;;;;;;2.25;1.42;;;15.10;99.90;;;;;;4976294;28;20034;-51
2022/07/12 02:03:24;;;;;;;3.35;1.48;;;15.20;99.90;;;;;;4976951;28;20098;-55
2022/07/12 02:05:49;;;;;;;2.05;1.85;;;15.10;99.90;;;;;;4977275;28;20101;-52
2022/07/12 02:08:15;;;;;;;4.20;1.63;;;15.20;99.90;;;;;;4977171;28;20110;-54
2022/07/12 02:10:41;;;;;;;1.65;1.40;;;15.20;99.90;;;;;;4977228;28;20019;-54
2022/07/12 02:13:07;;;;;;;2.80;1.77;;;15.10;99.90;;;;;;4977573;28;20486;-49
2022/07/12 02:15:33;;;;;;;1.50;1.40;;;15.10;99.90;;;;;;4977425;28;20030;-54
2022/07/12 02:17:58;;;;;;;2.45;1.42;;;15.00;99.90;;;;;;4977220;28;20037;-51
2022/07/12 02:20:24;;;;;;;10.15;2.10;;;15.00;99.90;;;;;;4976033;28;20078;-52
2022/07/12 02:22:50;;;;;;;3.35;1.52;;;15.10;99.90;;;;;;4976969;28;20027;-54
2022/07/12 02:25:16;;;;;;;2.28;1.60;;;15.10;99.90;;;;;;4976447;28;20063;-54
2022/07/12 02:27:42;;;;;;;7.88;1.73;;;15.00;99.90;;;;;;4976982;28;20033;-50
2022/07/12 02:30:09;;;;;;;5.88;1.60;;;14.90;99.90;;;;;;4976868;28;20446;-51
2022/07/12 02:32:35;;;;;;;5.88;2.45;;;14.80;99.90;;;;;;4977145;28;20099;-55
2022/07/12 02:35:00;;;;;;;7.50;2.15;;;14.70;99.90;;;;;;4975596;28;20027;-54
2022/07/12 02:37:26;;;;;;;2.92;1.70;;;14.50;99.90;;;;;;4976984;28;20047;-52
2022/07/12 02:40:52;;;;;;;3.58;1.92;;;14.50;99.90;;;;;;4976933;28;20023;-54
2022/07/12 02:42:37;;;;;;;9.68;1.73;;;14.50;99.90;;;;;;4976587;28;20023;-48
2022/07/12 02:45:03;;;;;;;3.17;1.83;;;14.50;99.90;;;;;;4976469;28;20089;-52
2022/07/12 02:47:29;;;;;;;2.67;1.70;;;14.50;99.90;;;;;;4976601;28;20041;-55
2022/07/12 02:49:54;;;;;;;4.15;1.70;;;14.50;99.90;;;;;;4976500;28;20023;-55
2022/07/12 02:52:20;;;;;;;2.67;1.50;;;14.60;99.90;;;;;;4976416;28;20031;-53
2022/07/12 02:54:45;;;;;;;1.70;1.40;;;14.60;99.90;;;;;;4975282;28;20058;-52
2022/07/12 02:57:11;;;;;;;4.05;2.00;;;14.60;99.90;;;;;;4976515;28;20026;-52
2022/07/12 02:59:37;;;;;;;2.85;1.77;;;14.60;99.90;;;;;;4975422;28;20023;-53
2022/07/12 03:02:03;;;;;;;4.60;1.80;;;14.50;99.90;;;;;;4976979;28;20038;-50
2022/07/12 03:04:28;;;;;;;3.72;1.50;;;14.50;99.90;;;;;;4975045;28;20027;-51
2022/07/12 03:06:54;;;;;;;2.75;1.52;;;14.40;99.90;;;;;;4976259;28;20508;-49
2022/07/12 03:09:19;;;;;;;4.15;2.40;;;14.50;99.90;;;;;;4976286;28;20026;-49
2022/07/12 03:11:45;;;;;;;2.25;1.95;;;14.50;99.90;;;;;;4974959;28;20031;-52
2022/07/12 03:14:10;;;;;;;5.88;2.00;;;14.40;99.90;;;;;;4975140;28;20142;-48
2022/07/12 03:16:36;;;;;;;8.68;1.70;;;14.40;99.90;;;;;;4975142;28;20473;-52
2022/07/12 03:19:02;;;;;;;3.67;2.17;;;14.40;99.90;;;;;;4975585;28;20026;-51
2022/07/12 03:21:27;;;;;;;1.90;1.48;;;14.40;99.90;;;;;;4975885;28;20018;-51
2022/07/12 03:23:53;;;;;;;1.98;1.63;;;14.40;99.90;;;;;;4974783;28;20027;-54
2022/07/12 03:26:18;;;;;;;2.00;1.80;;;14.40;99.90;;;;;;4974744;28;20027;-52
2022/07/12 03:28:44;;;;;;;2.88;1.65;;;14.40;99.90;;;;;;4975655;28;20077;-54
2022/07/12 03:31:10;;;;;;;6.75;2.22;;;14.30;99.90;;;;;;4975786;28;20066;-49
2022/07/12 03:33:36;;;;;;;2.58;1.90;;;14.20;99.90;;;;;;4974615;28;20027;-54
2022/07/12 03:36:02;;;;;;;4.80;1.73;;;14.20;99.90;;;;;;4974997;28;20034;-48
2022/07/12 03:38:27;;;;;;;3.22;1.85;;;14.20;99.90;;;;;;4974401;28;20023;-49
2022/07/12 03:40:53;;;;;;;2.85;1.80;;;14.10;99.90;;;;;;4975567;28;20030;-50
2022/07/12 03:43:18;;;;;;;5.20;1.92;;;14.00;99.90;;;;;;4974387;28;20023;-51
2022/07/12 03:45:45;;;;;;;2.85;2.30;;;13.90;99.90;;;;;;4975396;28;20027;-49
2022/07/12 03:48:11;;;;;;;5.70;1.80;;;14.00;99.90;;;;;;4975543;28;20018;-55
2022/07/12 03:50:37;;;;;;;6.63;1.75;;;13.90;99.90;;;;;;4974280;28;20077;-50
2022/07/12 03:53:02;;;;;;;6.32;1.90;;;13.80;99.90;;;;;;4974542;28;20027;-53
2022/07/12 03:55:28;;;;;;;2.47;2.20;;;13.90;99.90;;;;;;4974089;28;20034;-53
2022/07/12 03:57:53;;;;;;;6.88;1.73;;;13.90;99.90;;;;;;4975390;28;20073;-51
2022/07/12 04:00:19;;;;;;;4.97;1.45;;;14.00;99.90;;;;;;4975253;28;20035;-51
2022/07/12 04:02:45;;;;;;;3.97;1.90;;;14.10;99.90;;;;;;4974942;28;20118;-50
2022/07/12 04:05:11;;;;;;;2.75;1.60;;;14.10;99.90;;;;;;4974023;28;20029;-52
2022/07/12 04:07:38;;;;;;;4.55;1.77;;;14.20;99.90;;;;;;4973930;28;20043;-52
2022/07/12 04:10:05;;;;;;;3.08;2.33;;;14.20;99.90;;;;;;4974173;28;20038;-51
2022/07/12 04:12:31;;;;;;;2.42;1.83;;;14.30;99.90;;;;;;4975370;28;20034;-53
2022/07/12 04:14:56;;;;;;;2.25;1.50;;;14.50;99.90;;;;;;4975006;28;20026;-55
2022/07/12 04:17:22;;;;;;;7.00;1.98;;;14.80;99.90;;;;;;4975007;28;20049;-52
2022/07/12 04:19:49;;;;;;;3.38;1.88;;;15.00;99.90;;;;;;4974880;28;20393;-53
2022/07/12 04:22:15;;;;;;;3.47;1.88;;;15.20;99.90;;;;;;4975438;28;20023;-55
2022/07/12 04:24:41;;;;;;;2.35;1.60;;;15.40;99.90;;;;;;4973800;28;20111;-56
2022/07/12 04:27:06;;;;;;;5.40;2.35;;;15.70;99.90;;;;;;4973930;28;20037;-54
2022/07/12 04:29:32;;;;;;;3.25;2.13;;;16.00;99.90;;;;;;4974406;28;20517;-56
2022/07/12 04:31:57;;;;;;;6.47;1.83;;;16.20;99.90;;;;;;4975157;28;20478;-52
2022/07/12 04:34:23;;;;;;;3.00;1.80;;;16.50;99.90;;;;;;4975143;28;20088;-54
2022/07/12 04:36:49;;;;;;;2.72;1.88;;;16.60;99.90;;;;;;4973616;28;20397;-54
2022/07/12 04:39:15;;;;;;;6.35;1.73;;;16.80;99.90;;;;;;4973357;28;20026;-54
2022/07/12 04:41:40;;;;;;;3.63;2.10;;;16.80;99.90;;;;;;4974538;28;20027;-51
2022/07/12 04:44:07;;;;;;;4.50;1.98;;;16.90;99.90;;;;;;4973325;28;20030;-54
2022/07/12 04:46:33;;;;;;;3.33;1.70;;;16.90;99.90;;;;;;4973375;28;20034;-54
2022/07/12 04:48:59;;;;;;;4.47;2.20;;;17.10;99.90;;;;;;4974609;28;20026;-51
2022/07/12 04:51:24;;;;;;;3.95;2.15;;;17.40;99.90;;;;;;4973674;28;20390;-51
2022/07/12 04:53:50;;;;;;;3.45;1.58;;;17.80;99.90;;;;;;4974037;28;20035;-54
2022/07/12 04:56:16;;;;;;;4.05;1.65;;;18.10;99.90;;;;;;4973044;28;20026;-50
2022/07/12 04:58:41;;;;;;;3.20;2.30;;;18.40;99.90;;;;;;4973253;28;20114;-53
2022/07/12 05:01:07;;;;;;;4.53;1.90;;;18.80;99.90;;;;;;4973085;28;20393;-52
2022/07/12 05:03:34;;;;;;;3.17;1.90;;;19.00;99.90;;;;;;4974167;28;20520;-52
2022/07/12 05:06:00;;;;;;;5.88;1.58;;;19.20;99.90;;;;;;4970742;28;20043;-50
2022/07/12 05:08:25;;;;;;;2.10;1.90;;;19.40;99.90;;;;;;4954923;28;20033;-53
2022/07/12 05:10:51;;;;;;;2.90;2.17;;;19.60;99.90;;;;;;4969844;28;20028;-55
2022/07/12 05:13:17;;;;;;;3.20;2.00;;;20.10;99.90;;;;;;4970219;28;20394;-56
2022/07/12 05:15:42;;;;;;;11.38;2.00;;;20.30;99.90;;;;;;4954131;28;20031;-53
2022/07/12 05:18:30;;;;;;;1.42;1.33;;;20.70;99.90;;;;;;4955308;28;20045;-57
2022/07/12 05:20:56;;;;;;;4.57;1.80;;;21.00;99.90;;;;;;4954827;28;20027;-56
2022/07/12 05:23:21;;;;;;;3.83;1.70;;;21.30;99.90;;;;;;4955032;28;20027;-53
2022/07/12 05:25:47;;;;;;;2.03;1.60;;;21.60;99.90;;;;;;4969836;28;20028;-58
2022/07/12 05:28:15;;;;;;;2.47;1.63;;;22.00;99.90;;;;;;4953974;28;20035;-58
2022/07/12 05:30:41;;;;;;;2.42;1.88;;;22.30;99.90;;;;;;4970002;28;20395;-57
2022/07/12 05:33:07;;;;;;;2.83;1.60;;;22.70;99.90;;;;;;4953670;28;20389;-57
2022/07/12 05:35:32;;;;;;;2.08;1.88;;;23.00;99.90;;;;;;4969626;28;20139;-59
2022/07/12 05:37:58;;;;;;;3.25;1.95;;;23.30;99.90;;;;;;4969700;28;20019;-59
2022/07/12 05:40:24;;;;;;;4.78;2.33;;;23.60;99.90;;;;;;4954733;28;20078;-59
2022/07/12 05:42:51;;;;;;;2.05;1.50;;;24.00;99.90;;;;;;4955123;28;20034;-59
2022/07/12 05:45:16;;;;;;;2.63;2.03;;;24.50;99.90;;;;;;4969942;28;20171;-59
2022/07/12 05:47:42;;;;;;;2.47;2.22;;;24.90;99.90;;;;;;4969755;28;20064;-59
2022/07/12 05:50:08;;;;;;;3.72;2.22;;;25.10;99.90;;;;;;4954787;28;20082;-58
2022/07/12 05:55:27;;;;;;;3.75;2.05;;;25.10;99.90;;;;;;4954843;29;20038;-59
2022/07/12 05:57:52;;;;;;;4.00;1.90;;;25.50;99.90;;;;;;4969530;28;20094;-58
2022/07/12 06:00:18;;;;;;;2.47;1.90;;;25.90;99.90;;;;;;4959641;28;20094;-60
2022/07/12 06:02:44;;;;;;;2.00;1.80;;;26.20;99.90;;;;;;4976873;28;20094;-58
2022/07/12 06:05:09;;;;;;;4.13;2.00;;;26.10;99.90;;;;;;4977486;28;20371;-59
2022/07/12 06:07:36;;;;;;;5.65;2.17;;;26.40;99.90;;;;;;4976719;28;20055;-59
2022/07/12 06:10:03;;;;;;;2.30;2.10;;;26.30;99.90;;;;;;4960243;28;20086;-59
2022/07/12 06:12:28;;;;;;;2.85;1.90;;;26.60;99.90;;;;;;4976459;28;20027;-59
2022/07/12 06:14:54;;;;;;;2.35;2.15;;;27.00;99.90;;;;;;4977417;28;20118;-59
2022/07/12 06:17:22;;;;;;;5.70;2.10;;;27.30;99.90;;;;;;4977232;28;20055;-59
2022/07/12 06:19:48;;;;;;;2.42;2.22;;;27.60;99.90;;;;;;4977142;28;20015;-59
2022/07/12 06:22:13;;;;;;;6.25;2.22;;;27.90;99.90;;;;;;4977458;28;20029;-59
2022/07/12 06:24:39;;;;;;;2.97;2.08;;;28.50;99.90;;;;;;4977178;28;20030;-60
2022/07/12 06:27:05;;;;;;;4.22;1.80;;;28.80;99.90;;;;;;4977246;28;20026;-59
2022/07/12 06:29:30;;;;;;;2.53;1.90;;;28.70;99.90;;;;;;4976977;28;20109;-59
2022/07/12 06:31:56;;;;;;;1.60;1.50;;;28.80;99.90;;;;;;4976078;28;20039;-59
2022/07/12 06:34:22;;;;;;;3.78;2.05;;;29.40;99.90;;;;;;4975953;28;20034;-59
2022/07/12 06:36:48;;;;;;;1.70;1.60;;;29.80;99.90;;;;;;4976016;28;20027;-58
2022/07/12 06:39:14;;;;;;;3.17;1.52;;;30.30;99.90;;;;;;4976155;28;20117;-58
2022/07/12 06:41:40;;;;;;;1.98;1.75;;;30.90;99.90;;;;;;4976123;28;20058;-60
2022/07/12 06:44:05;;;;;;;4.20;2.10;;;31.60;99.90;;;;;;4976224;28;20026;-60
2022/07/12 06:46:31;;;;;;;3.58;1.70;;;31.90;98.30;;;;;;4976771;28;20026;-60
2022/07/12 06:48:56;;;;;;;1.50;1.33;;;31.90;98.50;;;;;;4976684;28;20061;-60
2022/07/12 06:51:22;;;;;;;2.80;1.65;;;32.50;98.60;;;;;;4975466;28;20123;-59
2022/07/12 06:53:47;;;;;;;2.90;2.33;;;32.80;96.00;;;;;;4975907;28;20359;-60
2022/07/12 06:59:36;;;;;;;2.13;1.70;;;32.40;94.70;;;;;;4976709;28;20025;-60
2022/07/12 07:02:02;;;;;;;2.72;1.98;;;32.20;95.70;;;;;;4975510;28;20409;-59
2022/07/12 07:04:27;;;;;;;5.10;1.45;;;33.00;95.00;;;;;;4975496;28;20026;-59
2022/07/12 07:06:53;;;;;;;2.50;1.90;;;33.90;94.00;;;;;;4975652;28;20022;-60
2022/07/12 07:09:19;;;;;;;3.15;1.52;;;34.70;91.10;;;;;;4975702;28;20086;-60
2022/07/12 07:11:44;;;;;;;2.03;1.30;;;35.50;88.40;;;;;;4975431;28;20019;-60
2022/07/12 07:14:10;;;;;;;1.70;1.20;;;36.10;86.00;;;;;;4974901;28;20046;-60
2022/07/12 07:16:36;;;;;;;1.52;1.42;;;36.60;84.60;;;;;;4976174;28;20094;-60
2022/07/12 07:19:02;;;;;;;1.30;1.20;;;36.80;79.40;;;;;;4975198;28;20019;-60
2022/07/12 07:21:28;;;;;;;3.65;1.98;;;36.50;80.30;;;;;;4974842;28;20054;-60
2022/07/12 07:23:54;;;;;;;1.98;1.20;;;36.90;78.30;;;;;;4976064;28;20030;-60
2022/07/12 07:26:20;;;;;;;2.03;1.20;;;37.00;77.20;;;;;;4975983;28;20029;-61
2022/07/12 07:31:34;;;;;;;2.35;1.00;;;37.00;75.60;;;;;;4975956;28;20034;-60
2022/07/12 07:34:00;;;;;;;2.33;1.25;;;38.10;72.60;;;;;;4974595;28;20023;-58
2022/07/12 07:36:26;;;;;;;1.85;1.42;;;38.00;72.40;;;;;;4975464;28;20038;-59
2022/07/12 07:38:51;;;;;;;3.03;1.30;;;37.30;71.50;;;;;;4974762;28;20070;-57
2022/07/12 07:41:17;;;;;;;1.80;1.33;;;37.80;72.30;;;;;;4974484;28;20031;-58
2022/07/12 07:43:43;;;;;;;2.20;0.90;;;38.70;70.20;;;;;;4974389;28;20492;-56
2022/07/12 07:46:08;;;;;;;3.03;1.00;;;38.70;69.60;;;;;;4974322;28;20034;-57
2022/07/12 07:48:34;;;;;;;5.85;1.15;;;37.60;67.60;;;;;;4975577;28;20034;-57
2022/07/12 07:51:00;;;;;;;6.03;1.10;;;35.90;70.70;;;;;;4973973;28;20033;-58
2022/07/12 07:53:26;;;;;;;2.97;1.20;;;35.40;70.30;;;;;;4975361;28;20066;-60
2022/07/12 07:55:52;;;;;;;5.40;1.02;;;35.40;71.90;;;;;;4973846;28;20062;-59
2022/07/12 08:01:44;;;;;;;6.13;1.38;;;34.20;72.80;;;;;;4975343;28;20144;-60
2022/07/12 08:04:13;;;;;;;6.80;1.15;;;33.60;74.00;;;;;;4974336;28;20051;-58
2022/07/12 08:06:41;;;;;;;2.30;0.90;;;32.80;76.40;;;;;;4970460;28;20094;-59
2022/07/12 08:12:28;;;;;;;3.63;0.80;;;32.10;78.10;;;;;;4956061;29;20018;-60
2022/07/12 08:14:54;;;;;;;1.45;0.70;;;32.70;76.30;;;;;;4954895;28;20023;-58
2022/07/12 08:17:20;;;;;;;0.70;0.70;;;32.10;75.50;;;;;;4955015;28;20039;-60
2022/07/12 08:19:45;;;;;;;0.60;0.60;;;31.70;77.50;;;;;;4954215;28;20027;-60
2022/07/12 08:22:23;;;;;;;4.32;0.60;;;33.30;74.80;;;;;;4954225;28;20106;-58
2022/07/12 08:24:49;;;;;;;1.05;0.70;;;32.70;73.90;;;;;;4954188;28;20037;-59
2022/07/12 08:27:15;;;;;;;2.78;0.82;;;31.30;77.00;;;;;;4954584;28;20037;-60
2022/07/12 08:29:41;;;;;;;3.70;0.90;;;30.90;78.80;;;;;;4955477;28;20083;-59
2022/07/12 08:32:07;;;;;;;1.13;0.70;;;30.40;79.90;;;;;;4954254;28;20062;-58
2022/07/12 08:34:33;;;;;;;2.15;0.82;;;31.90;77.60;;;;;;4954082;28;20062;-60
2022/07/12 08:37:08;;;;;;;0.77;0.57;;;33.00;76.40;;;;;;4954282;28;20027;-59
2022/07/12 08:39:33;;;;;;;2.17;0.60;;;33.80;72.60;;;;;;4955373;28;20027;-59
2022/07/12 08:41:59;;;;;;;2.95;0.70;;;34.30;72.90;;;;;;4954379;28;20023;-59
2022/07/12 08:44:25;;;;;;;0.60;0.50;;;34.90;69.60;;;;;;4954182;28;20030;-60
2022/07/12 08:46:52;;;;;;;0.70;0.70;;;35.60;70.80;;;;;;4954032;28;20062;-60
2022/07/12 08:49:18;;;;;;;1.58;0.70;;;37.20;68.70;;;;;;4961860;28;20031;-59
2022/07/12 08:51:44;;;;;;;2.42;0.70;;;38.60;65.30;;;;;;4974449;28;20163;-60
2022/07/12 08:54:15;;;;;;;1.13;0.70;;;38.50;64.90;;;;;;4974434;28;20105;-61
2022/07/12 08:56:43;;;;;;;1.10;1.00;;;37.80;63.80;;;;;;4974462;28;20019;-58
2022/07/12 08:59:21;;;;;;;1.95;0.90;;;37.80;64.50;;;;;;4974579;28;20023;-60
2022/07/12 09:01:52;;;;;;;0.60;0.60;;;36.50;64.70;;;;;;4973102;28;20038;-60
2022/07/12 09:04:21;;;;;;;0.50;0.50;;;37.10;64.20;;;;;;4974347;28;20019;-59
2022/07/12 09:06:48;;;;;;;2.83;0.50;;;37.50;62.40;;;;;;4973455;28;20027;-59
2022/07/12 09:09:37;;;;;;;0.75;0.60;;;37.40;61.50;;;;;;4973342;28;20038;-59
2022/07/12 09:15:21;;;;;;;0.95;0.70;;;38.00;62.90;;;;;;4974334;28;20038;-59
2022/07/12 09:17:55;;;;;;;3.50;0.80;;;36.90;62.10;;;;;;4972987;28;20085;-59
2022/07/12 09:20:20;;;;;;;1.45;0.55;;;38.20;61.60;;;;;;4973236;28;20030;-56
2022/07/12 09:26:09;;;;;;;0.50;0.50;;;37.50;59.60;;;;;;4974408;28;20038;-60
2022/07/12 09:28:35;;;;;;;0.60;0.60;;;37.70;59.80;;;;;;4972870;28;20027;-59
2022/07/12 09:31:01;;;;;;;0.95;0.52;;;38.10;59.30;;;;;;4974042;28;20362;-59
2022/07/12 09:36:12;;;;;;;0.60;0.60;;;40.30;57.60;;;;;;4977876;28;20034;-59
2022/07/12 09:38:39;;;;;;;1.50;0.65;;;39.10;56.70;;;;;;4976606;28;20023;-59
2022/07/12 09:41:08;;;;;;;0.60;0.60;;;37.30;57.90;;;;;;4977809;28;20074;-60
2022/07/12 09:43:34;;;;;;;0.90;0.50;;;37.60;58.00;;;;;;4976415;28;20023;-59
2022/07/12 09:46:35;;;;;;;0.65;0.65;;;37.30;58.50;;;;;;4976472;28;20031;-60
2022/07/12 09:49:03;;;;;;;0.50;0.50;;;38.30;58.30;;;;;;4977670;28;20106;-60
2022/07/12 09:51:31;;;;;;;0.60;0.60;;;38.80;57.50;;;;;;4976628;28;20038;-58
2022/07/12 09:54:15;;;;;;;0.93;0.82;;;39.80;56.80;;;;;;4976636;28;20041;-60
2022/07/12 09:57:20;;;;;;;1.10;0.68;;;40.30;54.30;;;;;;4976377;28;20027;-59
2022/07/12 09:59:58;;;;;;;1.35;0.70;;;41.10;54.00;;;;;;4976141;28;20054;-60
2022/07/12 10:05:46;;;;;;;0.63;0.57;;;43.00;52.50;;;;;;4977544;28;20026;-60
2022/07/12 10:08:13;;;;;;;0.88;0.88;;;40.50;52.30;;;;;;4975985;28;20022;-57
2022/07/12 10:10:39;;;;;;;0.73;0.60;;;39.50;54.40;;;;;;4975977;28;20086;-57
2022/07/12 10:13:05;;;;;;;0.60;0.60;;;40.40;54.40;;;;;;4976343;28;20056;-59
2022/07/12 10:15:32;;;;;;;1.35;0.80;;;41.20;52.30;;;;;;4976102;28;20030;-58
2022/07/12 10:18:01;;;;;;;0.90;0.80;;;40.80;51.80;;;;;;4977313;28;20128;-58
2022/07/12 10:20:27;;;;;;;2.55;0.80;;;40.40;52.20;;;;;;4976041;28;20023;-58
2022/07/12 10:23:15;;;;;;;1.77;0.80;;;40.10;52.20;;;;;;4977020;28;20109;-59
2022/07/12 10:25:41;;;;;;;1.85;0.85;;;38.80;52.70;;;;;;4975557;28;20027;-59
2022/07/12 10:31:23;;;;;;;3.55;0.75;;;36.40;54.60;;;;;;4977230;28;20027;-57
2022/07/12 10:34:01;;;;;;;0.50;0.50;;;35.70;56.80;;;;;;4977103;28;20104;-59
2022/07/12 10:36:26;;;;;;;0.73;0.73;;;36.50;56.60;;;;;;4975637;28;20405;-59
2022/07/12 10:39:25;;;;;;;0.98;0.82;;;36.50;56.90;;;;;;4976705;28;20019;-60
2022/07/12 10:45:14;;;;;;;1.48;0.57;;;36.70;56.90;;;;;;4976617;28;20038;-60
2022/07/12 10:47:54;;;;;;;1.35;0.80;;;35.70;55.80;;;;;;4976428;28;20033;-59
2022/07/12 10:50:20;;;;;;;0.60;0.52;;;33.60;58.60;;;;;;4975234;28;20025;-57
2022/07/12 10:52:45;;;;;;;0.77;0.77;;;31.90;61.40;;;;;;4976435;28;20101;-58
2022/07/12 10:55:14;;;;;;;0.40;0.40;;;31.00;62.70;;;;;;4975622;28;20038;-59
2022/07/12 10:57:49;;;;;;;0.60;0.60;;;30.80;64.50;;;;;;4975190;28;20033;-57
2022/07/12 11:00:15;;;;;;;0.60;0.52;;;30.90;64.20;;;;;;4975070;28;20030;-56
2022/07/12 11:02:41;;;;;;;0.60;0.60;;;30.40;65.50;;;;;;4976600;28;20057;-59
2022/07/12 11:05:08;;;;;;;0.60;0.50;;;30.40;65.50;;;;;;4975257;28;20389;-59
2022/07/12 11:07:34;;;;;;;0.60;0.50;;;30.80;65.70;;;;;;4975280;28;20113;-58
2022/07/12 11:10:00;;;;;;;0.52;0.52;;;31.10;64.40;;;;;;4974778;28;20081;-59
2022/07/12 11:12:30;;;;;;;0.63;0.63;;;30.90;64.00;;;;;;4974863;28;20030;-59
2022/07/12 11:14:58;;;;;;;1.17;0.65;;;30.80;62.60;;;;;;4974719;28;20035;-58
2022/07/12 11:17:32;;;;;;;0.43;0.43;;;29.90;63.50;;;;;;4975079;28;20274;-59
2022/07/12 11:20:05;;;;;;;0.60;0.60;;;29.60;66.10;;;;;;4974973;28;20062;-58
2022/07/12 11:22:31;;;;;;;0.43;0.43;;;29.60;65.00;;;;;;4975838;28;20062;-58
2022/07/12 11:24:59;;;;;;;0.57;0.57;;;28.80;67.70;;;;;;4975893;28;20054;-59
2022/07/12 11:27:27;;;;;;;0.40;0.40;;;28.60;67.40;;;;;;4975831;28;20027;-59
2022/07/12 11:29:59;;;;;;;0.63;0.50;;;28.50;67.00;;;;;;4975733;28;20046;-59
2022/07/12 11:32:39;;;;;;;0.60;0.60;;;28.60;68.20;;;;;;4974871;28;20110;-55
2022/07/12 11:35:18;;;;;;;0.43;0.43;;;28.80;68.70;;;;;;4975733;28;20027;-59
2022/07/12 11:37:55;;;;;;;0.63;0.40;;;28.80;67.10;;;;;;4974506;28;20035;-55
2022/07/12 11:40:28;;;;;;;0.73;0.40;;;28.30;65.80;;;;;;4975672;28;20046;-56
2022/07/12 11:42:59;;;;;;;3.63;0.50;;;28.10;67.10;;;;;;4974438;28;20090;-57
2022/07/12 11:45:26;;;;;;;1.65;0.60;;;27.80;67.10;;;;;;4974426;28;20027;-57
2022/07/12 11:47:52;;;;;;;2.55;0.50;;;27.50;68.60;;;;;;4975426;28;20070;-59
2022/07/12 11:50:19;;;;;;;0.55;0.47;;;27.70;69.80;;;;;;4975326;28;20051;-59
2022/07/12 11:52:45;;;;;;;2.53;0.47;;;27.90;70.00;;;;;;4974434;28;20031;-59
2022/07/12 11:55:11;;;;;;;1.27;0.40;;;28.10;70.30;;;;;;4975241;28;20026;-59
2022/07/12 11:57:37;;;;;;;0.57;0.47;;;28.40;69.30;;;;;;4974831;28;20049;-57
2022/07/12 12:00:32;;;;;;;0.68;0.50;;;28.60;68.90;;;;;;4975550;28;20022;-57
2022/07/12 12:03:46;;;;;;;0.93;0.40;;;28.60;67.60;;;;;;4971037;28;20043;-57
2022/07/12 12:10:00;;;;;;;0.93;0.57;;;28.70;68.60;;;;;;4956056;29;20104;-58
2022/07/12 12:12:48;;;;;;;0.95;0.60;;;28.80;69.90;;;;;;4956109;28;20023;-59
2022/07/12 12:15:22;;;;;;;1.80;0.80;;;28.80;69.40;;;;;;4951209;29;20043;-58
2022/07/12 12:17:59;;;;;;;0.50;0.50;;;28.80;70.00;;;;;;4954617;28;20023;-59
2022/07/12 12:20:31;;;;;;;2.00;0.50;;;28.80;69.80;;;;;;4954480;28;20038;-56
2022/07/12 12:26:26;;;;;;;0.50;0.50;;;28.80;69.10;;;;;;4955909;29;20029;-56
2022/07/12 12:29:02;;;;;;;0.50;0.50;;;28.70;69.60;;;;;;4955265;28;20090;-55
2022/07/12 12:31:37;;;;;;;0.40;0.40;;;28.70;69.20;;;;;;4954612;28;20023;-57
2022/07/12 12:34:18;;;;;;;0.30;0.30;;;28.70;68.90;;;;;;4955462;28;20054;-57
2022/07/12 12:37:03;;;;;;;0.35;0.35;;;28.60;69.20;;;;;;4939276;29;20029;-58
2022/07/12 12:39:30;;;;;;;0.82;0.50;;;28.40;64.50;;;;;;4954779;28;20118;-59
2022/07/12 12:41:56;;;;;;;0.30;0.30;;;28.30;67.40;;;;;;4955320;28;20030;-60
2022/07/12 12:44:23;;;;;;;0.55;0.40;;;28.40;68.80;;;;;;4955267;28;20023;-60
2022/07/12 12:47:30;;;;;;;2.55;0.40;;;28.30;66.90;;;;;;4955311;28;20023;-60
2022/07/12 12:49:50;;;;;;;8.48;0.88;;;28.20;67.30;;;;;;4955145;28;20074;-61
2022/07/12 12:52:16;;;;;;;0.88;0.50;;;28.00;67.90;;;;;;4955152;28;20062;-60
2022/07/12 12:54:57;;;;;;;1.58;0.47;;;27.90;66.60;;;;;;4955301;28;20111;-61
2022/07/12 12:57:25;;;;;;;0.40;0.40;;;27.70;68.80;;;;;;4954565;28;20118;-61
2022/07/12 13:00:06;;;;;;;0.50;0.40;;;27.60;66.60;;;;;;4955201;28;20019;-59
2022/07/12 13:02:31;;;;;;;1.13;0.52;;;27.60;68.10;;;;;;4953846;28;20111;-59
2022/07/12 13:05:05;;;;;;;1.67;0.70;;;27.70;68.80;;;;;;4953858;28;20055;-61
2022/07/12 13:07:31;;;;;;;1.60;0.40;;;27.60;68.20;;;;;;4953932;28;20073;-60
2022/07/12 13:09:56;;;;;;;2.97;0.45;;;27.60;69.40;;;;;;4958300;28;20051;-62
2022/07/12 13:12:22;;;;;;;0.52;0.40;;;27.70;69.20;;;;;;4958282;28;20027;-60
2022/07/12 13:14:49;;;;;;;0.50;0.50;;;27.80;67.10;;;;;;4958061;28;20034;-61
2022/07/12 13:17:34;;;;;;;1.48;0.40;;;27.90;69.00;;;;;;4957705;28;20032;-61
2022/07/12 13:19:59;;;;;;;0.57;0.57;;;28.00;70.20;;;;;;4958944;28;20102;-61
2022/07/12 13:23:02;;;;;;;0.75;0.68;;;27.90;68.90;;;;;;4958905;28;20087;-62
2022/07/12 13:25:29;;;;;;;1.17;0.32;;;27.80;67.70;;;;;;4958922;29;20106;-62
2022/07/12 13:27:55;;;;;;;0.77;0.70;;;27.90;69.30;;;;;;4957603;28;20035;-61
2022/07/12 13:30:56;;;;;;;0.55;0.40;;;27.90;70.50;;;;;;4957740;28;20035;-62
2022/07/12 13:33:22;;;;;;;0.52;0.30;;;28.00;69.00;;;;;;4958773;28;20086;-60
2022/07/12 13:36:18;;;;;;;0.57;0.40;;;28.00;68.70;;;;;;4957462;29;20036;-61